Terminal Aerodrome Forecast
Issued by NWS

Home | Current Version | Previous Version | Text Only | Print | Product List | Glossary On
Versions: 1 2 3 4 5 6 7 8 9 10 11 12 13 14 15 16
000
FTUS46 KPQR 221120
TAFONP
TAF
KONP 221120Z 2212/2312 21015G25KT 2SM RA BR OVC002
     FM221700 22010G18KT 6SM -SHRA SCT005 BKN015 OVC025
     FM222300 22010KT P6SM -SHRA SCT015 BKN030=

USA.gov is the U.S. government's official web portal to all federal, state and local government web resources and services.